Time;durP1;ratioP1;P1;durP2;ratioP2;P2;SDS_P1;SDS_P2;PMS_P1;PMS_P2;Temp;Humidity;BMP_temperature;BMP_pressure;BME280_temperature;BME280_humidity;BME280_pressure;Samples;Min_cycle;Max_cycle;Signal;HPM_P1;HPM_P2
2023/06/03 00:01:03;;;;;;;18.40;6.45;;;;;;;15.34;66.81;102009.00;5115696;28;20079;-60
2023/06/03 00:03:31;;;;;;;19.70;6.40;;;;;;;15.39;66.37;102003.72;5115847;28;20036;-60
2023/06/03 00:05:58;;;;;;;15.40;6.43;;;;;;;15.31;67.06;102002.75;5116020;28;20031;-60
2023/06/03 00:08:25;;;;;;;15.73;6.53;;;;;;;15.26;67.06;102002.72;5115765;28;20111;-61
2023/06/03 00:10:51;;;;;;;15.18;6.32;;;;;;;15.17;67.34;102003.50;5115368;28;20039;-60
2023/06/03 00:13:16;;;;;;;16.95;6.47;;;;;;;15.13;67.19;101996.38;5115407;28;20050;-60
2023/06/03 00:15:41;;;;;;;14.55;6.40;;;;;;;15.17;67.13;102005.28;5115446;28;20519;-60
2023/06/03 00:18:07;;;;;;;17.55;6.55;;;;;;;15.12;67.08;102002.56;5115524;28;20102;-60
2023/06/03 00:20:36;;;;;;;16.67;6.40;;;;;;;15.16;66.78;101999.06;5115482;28;20477;-61
2023/06/03 00:23:05;;;;;;;15.50;6.20;;;;;;;15.21;66.24;101999.13;5115773;28;20388;-60
2023/06/03 00:25:34;;;;;;;17.02;6.35;;;;;;;15.14;66.39;101998.16;5115469;28;20062;-60
2023/06/03 00:28:00;;;;;;;12.30;5.88;;;;;;;15.14;66.24;102002.59;5115471;28;20484;-60
2023/06/03 00:30:26;;;;;;;13.45;6.18;;;;;;;15.10;66.04;102008.75;5115062;28;20029;-60
2023/06/03 00:32:51;;;;;;;20.38;6.43;;;;;;;15.00;66.47;102008.66;5115214;28;20488;-60
2023/06/03 00:35:17;;;;;;;14.90;6.38;;;;;;;14.93;66.94;102003.22;5115118;28;20031;-60
2023/06/03 00:37:42;;;;;;;13.02;5.88;;;;;;;14.92;66.89;102005.00;5115037;28;20023;-60
2023/06/03 00:40:08;;;;;;;15.30;5.70;;;;;;;14.95;66.21;101997.06;5114987;28;20035;-60
2023/06/03 00:42:33;;;;;;;12.75;6.00;;;;;;;14.93;66.31;101998.81;5115231;28;20057;-60
2023/06/03 00:44:59;;;;;;;13.90;6.13;;;;;;;14.88;66.60;102003.19;5115029;28;20076;-61
2023/06/03 00:47:24;;;;;;;13.98;6.20;;;;;;;14.82;66.43;102000.47;5114995;28;20504;-60
2023/06/03 00:49:50;;;;;;;14.43;6.15;;;;;;;14.74;66.91;101991.50;5115117;28;20030;-60
2023/06/03 00:52:17;;;;;;;11.43;5.90;;;;;;;14.69;66.78;102002.09;5114767;28;20540;-60
2023/06/03 00:54:43;;;;;;;14.15;6.00;;;;;;;14.69;66.80;102003.84;5114731;28;20020;-61
2023/06/03 00:57:10;;;;;;;14.52;6.30;;;;;;;14.71;66.43;102002.09;5114822;28;20046;-60
2023/06/03 00:59:35;;;;;;;11.55;5.85;;;;;;;14.71;66.55;102002.97;5114338;28;20019;-60
2023/06/03 01:02:00;;;;;;;11.85;6.18;;;;;;;14.67;66.49;101998.50;5114535;28;20024;-60
2023/06/03 01:04:26;;;;;;;12.57;5.78;;;;;;;14.69;66.52;102006.53;5114698;28;20548;-60
2023/06/03 01:07:06;;;;;;;12.35;6.20;;;;;;;14.65;66.35;102002.91;5096263;28;20024;-60
2023/06/03 01:09:40;;;;;;;10.23;5.60;;;;;;;14.69;66.11;101998.53;5114492;28;20055;-61
2023/06/03 01:12:11;;;;;;;16.20;6.15;;;;;;;14.75;65.65;102002.16;5114268;28;20059;-61
2023/06/03 01:14:53;;;;;;;14.50;5.70;;;;;;;14.75;65.58;102001.25;5114268;28;20024;-60
2023/06/03 01:17:23;;;;;;;16.02;5.57;;;;;;;14.68;66.07;101994.94;5114712;28;20116;-60
2023/06/03 01:19:52;;;;;;;14.07;5.80;;;;;;;14.62;65.96;101992.22;5114226;28;20039;-60
2023/06/03 01:22:26;;;;;;;18.27;6.57;;;;;;;14.64;66.12;101998.44;5114211;28;20047;-60
2023/06/03 01:25:03;;;;;;;14.65;5.65;;;;;;;14.69;65.56;101999.44;5114479;28;20031;-60
2023/06/03 01:27:29;;;;;;;13.32;5.30;;;;;;;14.61;66.12;102001.09;5114468;28;20036;-60
2023/06/03 01:29:54;;;;;;;14.93;5.65;;;;;;;14.60;66.05;102001.06;5113974;28;20036;-60
2023/06/03 01:32:20;;;;;;;12.48;5.53;;;;;;;14.54;66.22;101999.22;5113929;28;20035;-60
2023/06/03 01:34:46;;;;;;;15.57;5.80;;;;;;;14.53;66.31;101993.00;5114049;28;20094;-60
2023/06/03 01:37:12;;;;;;;11.90;5.53;;;;;;;14.43;66.52;102007.03;5113984;28;20103;-60
2023/06/03 01:39:42;;;;;;;16.75;6.03;;;;;;;14.41;66.33;102006.09;5113839;28;20104;-60
2023/06/03 01:42:11;;;;;;;14.80;5.45;;;;;;;14.45;66.57;102004.38;5113907;28;20023;-60
2023/06/03 01:44:37;;;;;;;13.30;5.47;;;;;;;14.41;66.61;101998.13;5113779;28;20024;-60
2023/06/03 01:47:04;;;;;;;12.48;5.50;;;;;;;14.39;66.67;101993.66;5113663;28;20027;-61
2023/06/03 01:49:32;;;;;;;14.88;5.55;;;;;;;14.32;66.94;102000.66;5113986;28;20032;-60
2023/06/03 01:51:58;;;;;;;11.60;5.57;;;;;;;14.29;66.86;101996.19;5113672;28;20020;-60
2023/06/03 01:54:27;;;;;;;12.13;5.75;;;;;;;14.30;67.09;101999.72;5113595;28;20526;-60
2023/06/03 01:56:54;;;;;;;12.95;5.38;;;;;;;14.27;66.71;102007.69;5113086;28;20472;-60
2023/06/03 01:59:24;;;;;;;12.63;6.00;;;;;;;14.26;66.98;102012.13;5113077;28;20020;-62
2023/06/03 02:01:55;;;;;;;12.35;5.93;;;;;;;14.17;67.56;102016.38;5113572;28;20371;-60
2023/06/03 02:04:21;;;;;;;12.43;6.00;;;;;;;14.12;67.62;102018.09;5113435;28;20063;-60
2023/06/03 02:06:53;;;;;;;12.35;5.45;;;;;;;14.04;67.80;102005.56;5113635;28;20114;-60
2023/06/03 02:09:24;;;;;;;11.25;5.32;;;;;;;14.04;68.23;102004.69;5113728;28;20081;-60
2023/06/03 02:11:51;;;;;;;13.65;5.70;;;;;;;13.97;68.02;102003.72;5113325;28;20048;-60
2023/06/03 02:14:16;;;;;;;8.98;5.35;;;;;;;13.98;68.26;102007.25;5113456;28;20043;-60
2023/06/03 02:16:42;;;;;;;14.32;5.60;;;;;;;13.94;68.71;102000.09;5113344;28;20428;-60
2023/06/03 02:19:13;;;;;;;12.85;5.53;;;;;;;13.90;68.57;102000.94;5113478;28;20024;-61
2023/06/03 02:21:39;;;;;;;13.85;5.70;;;;;;;13.92;68.23;101996.53;5113442;28;20522;-60
2023/06/03 02:24:07;;;;;;;10.93;5.68;;;;;;;13.90;68.90;101996.50;5113237;28;20028;-60
2023/06/03 02:26:33;;;;;;;11.38;5.95;;;;;;;13.86;68.90;101993.78;5113224;28;20057;-60
2023/06/03 02:28:59;;;;;;;11.25;5.75;;;;;;;13.83;69.38;101997.25;5113306;28;20050;-60
2023/06/03 02:31:24;;;;;;;12.73;5.45;;;;;;;13.80;69.50;102004.31;5112796;28;20533;-60
2023/06/03 02:33:50;;;;;;;13.07;5.55;;;;;;;13.76;69.47;102003.38;5113144;28;20106;-60
2023/06/03 02:36:18;;;;;;;12.63;5.57;;;;;;;13.76;69.36;101992.75;5113096;28;20027;-60
2023/06/03 02:38:44;;;;;;;11.80;5.53;;;;;;;13.76;69.79;101998.06;5113038;28;20050;-61
2023/06/03 02:41:09;;;;;;;12.88;5.47;;;;;;;13.73;69.55;102004.19;5113133;28;20485;-60
2023/06/03 02:43:35;;;;;;;15.85;5.80;;;;;;;13.72;69.61;102004.19;5113074;28;20043;-61
2023/06/03 02:46:01;;;;;;;11.75;5.43;;;;;;;13.64;70.07;101998.75;5094907;28;20046;-60
2023/06/03 02:48:26;;;;;;;12.90;5.90;;;;;;;13.63;70.18;102006.69;5113129;28;20027;-60
2023/06/03 02:50:52;;;;;;;13.00;5.47;;;;;;;13.64;70.27;102005.81;5112943;28;20057;-60
2023/06/03 02:53:17;;;;;;;13.02;5.70;;;;;;;13.66;70.00;102002.34;5113046;28;20027;-60
2023/06/03 02:55:44;;;;;;;8.65;5.18;;;;;;;13.72;70.44;102002.41;5095079;28;20035;-60
2023/06/03 02:58:12;;;;;;;11.88;5.82;;;;;;;13.66;70.14;102005.00;5113000;28;20472;-61
2023/06/03 03:00:39;;;;;;;11.02;5.72;;;;;;;13.61;70.51;102004.00;5112498;28;20118;-61
2023/06/03 03:03:04;;;;;;;11.07;5.63;;;;;;;13.61;70.10;102001.34;5112806;28;20020;-60
2023/06/03 03:05:30;;;;;;;10.02;5.47;;;;;;;13.61;70.00;102003.09;5094664;28;20495;-60
2023/06/03 03:07:58;;;;;;;11.27;5.35;;;;;;;13.61;69.89;102008.41;5114385;28;20024;-60
2023/06/03 03:10:24;;;;;;;12.02;5.35;;;;;;;13.57;70.05;102003.91;5116531;28;20023;-60
2023/06/03 03:12:50;;;;;;;13.60;5.65;;;;;;;13.57;69.90;102002.16;5116502;28;20523;-60
2023/06/03 03:15:15;;;;;;;10.60;5.80;;;;;;;13.58;69.88;102003.06;5116592;28;20107;-60
2023/06/03 03:17:41;;;;;;;10.07;5.50;;;;;;;13.56;69.65;102000.38;5116738;28;20035;-60
2023/06/03 03:20:07;;;;;;;11.30;5.65;;;;;;;13.50;69.85;102006.47;5116690;28;20438;-61
2023/06/03 03:22:34;;;;;;;12.40;5.50;;;;;;;13.49;70.52;102001.16;5117046;28;20030;-60
2023/06/03 03:24:59;;;;;;;11.50;5.53;;;;;;;13.43;70.03;102012.53;5116525;28;20024;-60
2023/06/03 03:27:25;;;;;;;11.40;5.47;;;;;;;13.39;70.60;102009.81;5116460;28;20024;-60
2023/06/03 03:29:54;;;;;;;13.05;5.38;;;;;;;13.35;70.39;102007.97;5098095;28;20044;-60
2023/06/03 03:32:20;;;;;;;10.90;5.60;;;;;;;13.37;70.25;102007.13;5115380;28;20077;-60
2023/06/03 03:34:53;;;;;;;11.65;5.72;;;;;;;13.42;70.19;102007.22;5116348;28;20020;-60
2023/06/03 03:37:18;;;;;;;17.10;5.82;;;;;;;13.41;70.47;102019.59;5097951;28;20140;-60
2023/06/03 03:39:44;;;;;;;8.73;5.55;;;;;;;13.38;70.40;102014.22;5116070;28;20190;-60
2023/06/03 03:42:10;;;;;;;7.40;4.85;;;;;;;13.35;70.69;102011.50;5116227;28;20055;-60
2023/06/03 03:44:35;;;;;;;11.23;5.68;;;;;;;13.29;70.67;102019.38;5116227;28;20537;-60
2023/06/03 03:47:01;;;;;;;12.40;5.95;;;;;;;13.28;70.35;102015.84;5116045;28;20484;-60
2023/06/03 03:49:28;;;;;;;12.45;5.63;;;;;;;13.25;71.21;102017.53;5116258;28;20023;-60
2023/06/03 03:51:56;;;;;;;8.93;5.43;;;;;;;13.23;70.75;102020.16;5116089;28;20054;-60
2023/06/03 03:54:23;;;;;;;9.73;5.47;;;;;;;13.21;70.57;102018.31;5115839;28;20475;-60
2023/06/03 03:56:54;;;;;;;7.65;5.28;;;;;;;13.20;70.68;102014.75;5115890;28;20019;-60
2023/06/03 03:59:19;;;;;;;11.70;5.35;;;;;;;13.18;70.72;102018.22;5115824;28;20533;-60
2023/06/03 04:01:44;;;;;;;10.15;5.57;;;;;;;13.17;70.78;102025.31;5115577;28;20099;-60
2023/06/03 04:04:15;;;;;;;11.20;5.38;;;;;;;13.22;70.68;102021.00;5115822;28;20392;-61
2023/06/03 04:06:41;;;;;;;10.40;5.70;;;;;;;13.21;70.65;102028.91;5115701;28;20108;-61
2023/06/03 04:09:10;;;;;;;10.75;5.38;;;;;;;13.20;70.77;102022.72;5097361;28;20124;-60
2023/06/03 04:11:44;;;;;;;9.60;5.18;;;;;;;13.24;70.70;102026.38;5097272;28;20093;-60
2023/06/03 04:14:14;;;;;;;12.27;5.30;;;;;;;13.23;70.67;102027.22;5115616;28;20019;-60
2023/06/03 04:16:58;;;;;;;9.73;5.57;;;;;;;13.27;70.23;102027.31;5115636;28;20495;-61
2023/06/03 04:19:30;;;;;;;10.63;5.20;;;;;;;13.31;70.54;102030.91;5114871;28;20063;-60
2023/06/03 04:21:56;;;;;;;8.88;5.85;;;;;;;13.26;70.66;102025.50;5115581;28;20024;-60
2023/06/03 04:24:22;;;;;;;7.90;5.10;;;;;;;13.30;70.45;102031.78;5115408;28;20058;-60
2023/06/03 04:26:49;;;;;;;8.80;5.47;;;;;;;13.30;70.51;102026.47;5115578;28;20042;-60
2023/06/03 04:29:15;;;;;;;10.25;5.35;;;;;;;13.38;70.02;102034.56;5115343;28;20035;-60
2023/06/03 04:31:40;;;;;;;13.00;5.13;;;;;;;13.40;69.86;102038.13;5114783;28;20408;-60
2023/06/03 04:34:06;;;;;;;10.15;5.50;;;;;;;13.40;69.62;102040.78;5115129;28;20024;-60
2023/06/03 04:36:31;;;;;;;9.55;5.50;;;;;;;13.43;69.84;102048.81;5115113;28;20431;-60
2023/06/03 04:38:58;;;;;;;11.88;5.85;;;;;;;13.44;70.14;102032.91;5114836;28;20541;-60
2023/06/03 04:41:27;;;;;;;8.93;5.00;;;;;;;13.45;69.54;102034.72;5114920;28;20122;-60
2023/06/03 04:43:55;;;;;;;9.35;5.03;;;;;;;13.45;69.92;102039.16;5096442;28;20032;-60
2023/06/03 04:46:21;;;;;;;8.27;4.47;;;;;;;13.47;69.19;102038.28;5114936;28;20039;-60
2023/06/03 04:48:48;;;;;;;11.63;5.25;;;;;;;13.50;69.32;102043.66;5096501;28;20520;-59
2023/06/03 04:51:13;;;;;;;11.38;4.97;;;;;;;13.56;68.80;102036.66;5114684;28;20036;-61
2023/06/03 04:53:40;;;;;;;11.05;5.35;;;;;;;13.64;68.42;102037.69;5114582;28;20027;-60
2023/06/03 04:56:08;;;;;;;10.23;5.20;;;;;;;13.67;68.75;102040.41;5114827;28;20026;-60
2023/06/03 04:58:40;;;;;;;11.68;5.05;;;;;;;13.73;68.38;102043.16;5114675;28;20376;-60
2023/06/03 05:01:08;;;;;;;9.07;4.90;;;;;;;13.82;67.63;102051.28;5114091;28;20034;-60
2023/06/03 05:03:35;;;;;;;11.35;5.07;;;;;;;13.88;67.13;102043.44;5096220;28;20028;-62
2023/06/03 05:06:01;;;;;;;8.30;4.50;;;;;;;13.96;66.21;102041.78;5114383;28;20031;-60
2023/06/03 05:08:27;;;;;;;8.93;4.90;;;;;;;14.05;65.69;102046.34;5096466;28;20144;-60
2023/06/03 05:10:52;;;;;;;9.38;5.20;;;;;;;14.13;64.60;102046.44;5114346;28;20181;-60
2023/06/03 05:13:17;;;;;;;10.90;5.25;;;;;;;14.24;64.47;102045.75;5114038;28;20051;-60
2023/06/03 05:15:43;;;;;;;7.95;4.85;;;;;;;14.34;63.56;102041.44;5113754;28;20024;-59
2023/06/03 05:18:08;;;;;;;8.90;4.72;;;;;;;14.44;63.63;102040.72;5114413;28;20024;-60
2023/06/03 05:20:33;;;;;;;8.75;5.10;;;;;;;14.57;63.47;102036.50;5114047;28;20028;-60
2023/06/03 05:22:59;;;;;;;10.02;4.78;;;;;;;14.66;63.90;102041.06;5114173;28;20016;-60
2023/06/03 05:25:24;;;;;;;10.23;4.95;;;;;;;14.76;62.69;102043.84;5114102;28;20031;-60
2023/06/03 05:27:50;;;;;;;9.35;4.45;;;;;;;14.91;62.11;102047.59;5114067;28;20035;-60
2023/06/03 05:30:15;;;;;;;8.65;4.72;;;;;;;14.96;61.14;102045.88;5112727;28;20115;-60
2023/06/03 05:32:41;;;;;;;10.65;4.40;;;;;;;15.09;60.70;102044.25;5113939;28;20036;-60
2023/06/03 05:35:07;;;;;;;8.05;4.88;;;;;;;15.22;59.93;102044.38;5113865;28;20024;-60
2023/06/03 05:37:33;;;;;;;8.70;4.15;;;;;;;15.37;59.40;102048.06;5113840;28;20023;-60
2023/06/03 05:39:58;;;;;;;7.25;4.57;;;;;;;15.51;58.85;102051.78;5113697;28;20027;-60
2023/06/03 05:42:23;;;;;;;7.60;4.60;;;;;;;15.63;57.41;102040.34;5095494;28;20032;-60
2023/06/03 05:44:49;;;;;;;8.50;4.65;;;;;;;15.74;58.23;102046.69;5113537;28;20115;-60
2023/06/03 05:47:14;;;;;;;6.97;4.22;;;;;;;15.90;57.03;102039.72;5113532;28;20027;-61
2023/06/03 05:49:40;;;;;;;11.77;4.45;;;;;;;16.06;56.99;102038.97;5095588;28;20028;-60
2023/06/03 05:52:05;;;;;;;7.93;5.05;;;;;;;16.10;56.17;102042.53;5113757;28;20024;-60
2023/06/03 05:54:31;;;;;;;9.45;4.43;;;;;;;16.18;54.71;102035.47;5113907;28;20031;-60
2023/06/03 05:56:57;;;;;;;9.30;4.28;;;;;;;16.14;53.86;102034.56;5113971;28;20032;-60
2023/06/03 05:59:23;;;;;;;11.55;4.40;;;;;;;16.23;54.33;102037.31;5113245;28;20042;-60
2023/06/03 06:01:48;;;;;;;9.57;4.60;;;;;;;16.45;53.83;102040.09;5113357;28;20023;-60
2023/06/03 06:04:13;;;;;;;6.72;4.28;;;;;;;16.65;53.25;102043.75;5113445;28;20031;-60
2023/06/03 06:06:39;;;;;;;10.18;4.22;;;;;;;16.86;52.49;102047.44;5095198;28;20031;-60
2023/06/03 06:09:05;;;;;;;6.28;4.07;;;;;;;17.00;51.34;102045.72;5113299;28;20024;-60
2023/06/03 06:11:30;;;;;;;8.57;4.18;;;;;;;17.20;51.24;102044.00;5113233;28;20142;-60
2023/06/03 06:13:55;;;;;;;9.27;4.13;;;;;;;17.41;50.92;102039.59;5113531;28;20114;-60
2023/06/03 06:16:21;;;;;;;9.23;4.20;;;;;;;17.56;49.93;102042.31;5113243;28;20024;-60
2023/06/03 06:18:48;;;;;;;10.15;4.13;;;;;;;17.70;49.30;102040.50;5113276;28;20036;-61
2023/06/03 06:21:15;;;;;;;9.88;4.03;;;;;;;17.94;48.52;102042.34;5113326;28;20024;-61
2023/06/03 06:23:43;;;;;;;9.00;3.95;;;;;;;18.16;48.15;102047.66;5095359;28;20484;-60
2023/06/03 06:26:09;;;;;;;13.55;3.85;;;;;;;18.33;47.07;102043.19;5113177;28;20064;-60
2023/06/03 06:28:35;;;;;;;7.93;3.67;;;;;;;18.40;46.71;102049.41;5113098;28;20059;-60
2023/06/03 06:31:04;;;;;;;7.50;3.92;;;;;;;18.45;45.84;102051.16;5113087;28;20045;-60
2023/06/03 06:33:30;;;;;;;8.52;4.00;;;;;;;18.58;45.93;102053.81;5113433;28;20365;-60
2023/06/03 06:35:56;;;;;;;9.95;3.60;;;;;;;18.69;45.43;102058.28;5113137;28;20028;-60
2023/06/03 06:38:21;;;;;;;7.80;3.60;;;;;;;18.92;44.06;102057.28;5113060;28;20502;-61
2023/06/03 06:40:50;;;;;;;8.07;3.47;;;;;;;19.09;43.24;102057.19;5113122;28;20031;-61
2023/06/03 06:43:16;;;;;;;5.80;3.63;;;;;;;19.09;41.66;102054.53;5116484;28;20058;-60
2023/06/03 06:45:42;;;;;;;4.22;3.30;;;;;;;19.22;42.38;102053.56;5117154;28;20453;-60
2023/06/03 06:48:10;;;;;;;7.43;3.40;;;;;;;19.42;41.79;102050.75;5117203;28;20023;-60
2023/06/03 06:50:54;;;;;;;7.75;3.22;;;;;;;19.64;42.89;102056.91;5117271;28;20130;-60
2023/06/03 06:53:20;;;;;;;7.88;3.33;;;;;;;19.89;41.88;102052.22;5117105;28;20110;-61
2023/06/03 06:56:12;;;;;;;7.85;3.40;;;;;;;20.07;40.78;102051.16;5117200;28;20028;-60
2023/06/03 06:58:39;;;;;;;8.18;3.17;;;;;;;20.12;39.89;102062.75;5112179;28;20040;-60
2023/06/03 07:01:06;;;;;;;5.38;3.40;;;;;;;20.25;39.73;102059.03;5116639;28;20019;-60
2023/06/03 07:03:33;;;;;;;6.72;3.25;;;;;;;20.33;39.15;102053.59;5116937;28;20039;-60
2023/06/03 07:05:59;;;;;;;6.40;3.20;;;;;;;20.45;38.50;102051.66;5116863;28;20083;-61
2023/06/03 07:08:25;;;;;;;5.85;3.08;;;;;;;20.60;38.16;102055.09;5117081;28;20020;-61
2023/06/03 07:10:55;;;;;;;9.90;3.17;;;;;;;20.72;37.44;102055.84;5116920;28;20118;-60
2023/06/03 07:13:20;;;;;;;13.50;3.40;;;;;;;20.88;38.00;102047.63;5116418;28;20186;-60
2023/06/03 07:15:46;;;;;;;9.50;3.25;;;;;;;20.96;36.33;102053.78;5116471;28;20036;-60
2023/06/03 07:18:12;;;;;;;14.20;3.58;;;;;;;21.16;37.00;102045.47;5116652;28;20100;-61
2023/06/03 07:20:42;;;;;;;9.70;3.10;;;;;;;21.37;37.26;102041.59;5116456;28;20032;-60
2023/06/03 07:23:13;;;;;;;6.90;2.90;;;;;;;21.55;35.99;102046.72;5098196;28;20362;-60
2023/06/03 07:25:46;;;;;;;7.32;2.97;;;;;;;21.81;35.55;102046.28;5116250;28;20429;-60
2023/06/03 07:28:21;;;;;;;13.10;3.35;;;;;;;21.89;35.20;102051.53;5116441;28;20038;-60
2023/06/03 07:30:49;;;;;;;5.97;3.05;;;;;;;22.17;34.11;102057.34;5116125;28;20621;-60
2023/06/03 07:33:27;;;;;;;5.40;2.90;;;;;;;22.26;34.76;102057.16;5116513;28;20157;-60
2023/06/03 07:35:55;;;;;;;10.25;2.95;;;;;;;22.29;32.89;102053.56;5098072;28;20114;-60
2023/06/03 07:38:52;;;;;;;5.47;3.00;;;;;;;22.43;33.07;102046.09;5116149;28;20080;-60
2023/06/03 07:41:35;;;;;;;8.38;2.75;;;;;;;22.43;31.98;102048.78;5116030;28;20484;-60
2023/06/03 07:44:01;;;;;;;6.68;2.90;;;;;;;22.49;32.29;102041.47;5116348;28;20028;-60
2023/06/03 07:46:40;;;;;;;9.00;2.83;;;;;;;22.75;33.39;102038.25;5115929;28;20055;-60
2023/06/03 07:49:24;;;;;;;6.05;2.55;;;;;;;23.02;32.87;102045.81;5115976;28;20080;-60
2023/06/03 07:51:51;;;;;;;4.68;2.60;;;;;;;23.21;30.47;102049.84;5115650;28;20016;-61
2023/06/03 07:54:18;;;;;;;8.50;3.50;;;;;;;23.27;29.58;102047.03;5115047;28;20016;-61
2023/06/03 07:56:44;;;;;;;7.80;2.45;;;;;;;23.22;29.07;102051.66;5116000;28;20053;-60
2023/06/03 07:59:12;;;;;;;7.72;2.72;;;;;;;23.35;29.41;102057.66;5116024;28;20026;-60
2023/06/03 08:01:40;;;;;;;4.45;2.45;;;;;;;23.41;28.38;102060.19;5115609;28;20029;-61
2023/06/03 08:04:20;;;;;;;5.07;2.50;;;;;;;23.66;29.57;102056.03;5115691;28;20161;-60
2023/06/03 08:06:49;;;;;;;7.03;2.55;;;;;;;23.81;28.33;102056.56;5115691;28;20035;-61
2023/06/03 08:09:38;;;;;;;6.68;2.70;;;;;;;23.88;29.40;102052.78;5115873;28;20055;-61
2023/06/03 08:12:06;;;;;;;8.98;3.00;;;;;;;23.72;28.46;102054.97;5102231;28;20040;-61
2023/06/03 08:14:33;;;;;;;5.10;2.50;;;;;;;23.76;27.66;102050.41;5115121;28;20561;-61
2023/06/03 08:17:15;;;;;;;5.85;2.50;;;;;;;23.91;27.17;102056.31;5097704;28;20036;-60
2023/06/03 08:19:45;;;;;;;8.43;2.10;;;;;;;23.82;26.62;102052.97;5115510;28;20037;-61
2023/06/03 08:22:44;;;;;;;6.38;2.20;;;;;;;24.01;26.97;102050.66;5115349;28;20536;-60
2023/06/03 08:25:10;;;;;;;3.63;2.20;;;;;;;23.94;26.13;102058.94;5106170;28;20088;-61
2023/06/03 08:27:36;;;;;;;4.55;2.10;;;;;;;23.78;25.16;102054.84;5115464;28;20092;-61
2023/06/03 08:30:06;;;;;;;5.93;2.25;;;;;;;23.74;25.83;102051.34;5114734;28;20039;-61
2023/06/03 08:32:35;;;;;;;5.93;2.78;;;;;;;23.78;25.38;102048.56;5115331;28;20110;-60
2023/06/03 08:35:01;;;;;;;4.75;2.25;;;;;;;23.76;25.49;102053.97;5115001;28;20081;-61
2023/06/03 08:37:28;;;;;;;6.50;2.30;;;;;;;23.89;26.39;102044.66;5114911;28;20028;-61
2023/06/03 08:39:54;;;;;;;5.55;2.72;;;;;;;23.93;25.48;102067.06;5114826;28;20384;-61
2023/06/03 08:42:28;;;;;;;9.00;2.25;;;;;;;23.77;26.11;102050.38;5115021;28;20131;-60
2023/06/03 08:45:06;;;;;;;6.28;2.10;;;;;;;24.06;26.51;102046.91;5114814;28;20055;-61
2023/06/03 08:47:35;;;;;;;9.18;2.40;;;;;;;24.26;25.67;102041.00;5114796;28;20480;-61
2023/06/03 08:50:05;;;;;;;6.63;2.10;;;;;;;24.44;25.11;102042.31;5096515;28;20385;-61
2023/06/03 08:52:34;;;;;;;7.25;2.30;;;;;;;24.61;25.39;102034.63;5114701;28;20635;-60
2023/06/03 08:55:01;;;;;;;6.47;2.30;;;;;;;24.77;24.71;102037.78;5114719;28;20027;-60
2023/06/03 08:57:34;;;;;;;10.50;2.33;;;;;;;25.06;25.29;102031.50;5114787;28;20020;-61
2023/06/03 09:00:01;;;;;;;4.65;2.10;;;;;;;25.05;24.50;102036.94;5114594;28;20040;-60
2023/06/03 09:02:29;;;;;;;6.18;2.10;;;;;;;25.22;23.59;102042.72;5114436;28;20429;-61
2023/06/03 09:04:55;;;;;;;4.40;2.10;;;;;;;25.14;23.60;102039.41;5114606;28;20046;-60
2023/06/03 09:07:23;;;;;;;8.38;2.10;;;;;;;25.12;23.89;102034.03;5096743;28;20114;-61
2023/06/03 09:09:52;;;;;;;5.72;2.08;;;;;;;25.11;23.89;102047.63;5114560;28;20035;-60
2023/06/03 09:12:21;;;;;;;5.13;2.30;;;;;;;25.09;23.05;102039.53;5114123;28;20065;-60
2023/06/03 09:14:47;;;;;;;6.53;2.35;;;;;;;25.01;23.42;102040.66;5114316;28;20055;-61
2023/06/03 09:17:12;;;;;;;5.47;2.38;;;;;;;25.03;22.77;102028.00;5114165;28;20028;-61
2023/06/03 09:19:39;;;;;;;5.72;2.17;;;;;;;25.29;23.69;102038.91;5114192;28;20040;-60
2023/06/03 09:22:06;;;;;;;6.40;2.15;;;;;;;25.58;22.93;102031.69;5114313;28;20027;-60
2023/06/03 09:24:31;;;;;;;9.10;2.05;;;;;;;25.70;22.92;102029.44;5114120;28;20433;-61
2023/06/03 09:26:57;;;;;;;7.90;2.33;;;;;;;25.75;21.73;102032.00;5113999;28;20110;-60
2023/06/03 09:29:23;;;;;;;3.13;1.90;;;;;;;26.07;22.77;102036.34;5113996;28;20094;-60
2023/06/03 09:31:48;;;;;;;5.65;2.13;;;;;;;26.33;22.95;102029.97;5113539;28;20477;-61
2023/06/03 09:34:17;;;;;;;10.23;2.45;;;;;;;26.21;22.63;102028.63;5113792;28;20032;-60
2023/06/03 09:36:48;;;;;;;3.53;2.00;;;;;;;26.33;22.49;102029.97;5113808;28;20168;-60
2023/06/03 09:39:17;;;;;;;3.90;1.90;;;;;;;26.56;22.40;102029.19;5113899;28;20111;-60
2023/06/03 09:41:43;;;;;;;8.32;2.10;;;;;;;26.70;21.13;102029.53;5096199;28;20058;-60
2023/06/03 09:44:10;;;;;;;4.47;2.10;;;;;;;26.63;19.91;102028.00;5113825;28;20055;-60
2023/06/03 09:46:36;;;;;;;5.82;1.90;;;;;;;26.36;17.90;102029.00;5113467;28;20545;-62
2023/06/03 09:49:13;;;;;;;4.30;2.08;;;;;;;26.22;19.07;102029.50;5113643;28;20035;-61
2023/06/03 09:51:48;;;;;;;6.80;2.05;;;;;;;26.48;19.68;102028.59;5113638;28;20072;-61
2023/06/03 09:54:23;;;;;;;8.32;2.00;;;;;;;26.39;19.57;102029.78;5113854;28;20077;-62
2023/06/03 09:56:49;;;;;;;7.90;1.92;;;;;;;26.39;19.68;102029.78;5113862;28;20123;-61
2023/06/03 09:59:23;;;;;;;5.78;2.08;;;;;;;26.96;19.95;102023.13;5113724;28;20027;-61
2023/06/03 10:01:51;;;;;;;3.45;1.90;;;;;;;27.13;19.64;102040.59;5113366;28;20421;-61
2023/06/03 10:04:36;;;;;;;4.28;2.00;;;;;;;27.21;17.34;102039.34;5113683;28;20099;-62
2023/06/03 10:07:10;;;;;;;6.22;1.90;;;;;;;26.85;18.23;102028.09;5113364;28;20028;-62
2023/06/03 10:09:36;;;;;;;3.75;2.03;;;;;;;26.86;18.79;102035.28;5113328;28;20067;-61
2023/06/03 10:12:02;;;;;;;12.82;2.20;;;;;;;26.92;18.74;102042.28;5113591;28;20123;-61
2023/06/03 10:14:28;;;;;;;5.38;1.95;;;;;;;27.23;18.68;102032.97;5113264;28;20244;-61
2023/06/03 10:17:02;;;;;;;3.00;1.95;;;;;;;27.66;17.78;102041.13;5113028;28;20455;-63
2023/06/03 10:19:28;;;;;;;3.17;2.00;;;;;;;27.97;17.42;102029.00;5113252;28;20024;-63
2023/06/03 10:21:55;;;;;;;3.72;1.83;;;;;;;27.91;18.39;102029.25;5113183;28;20031;-60
2023/06/03 10:24:22;;;;;;;3.22;1.80;;;;;;;27.81;17.28;102022.47;5113244;28;20476;-61
2023/06/03 10:26:48;;;;;;;3.42;1.80;;;;;;;27.88;17.20;102035.72;5113168;28;20012;-61
2023/06/03 10:29:15;;;;;;;4.63;1.92;;;;;;;27.83;18.20;102032.28;5113114;28;20051;-61
2023/06/03 10:31:44;;;;;;;3.63;1.85;;;;;;;28.21;17.32;102019.75;5113088;28;20417;-61
2023/06/03 10:34:14;;;;;;;6.15;2.13;;;;;;;28.28;18.28;102023.09;5113440;28;20031;-60
2023/06/03 10:36:41;;;;;;;4.32;1.90;;;;;;;28.44;17.17;102016.06;5112562;28;20024;-61
2023/06/03 10:39:11;;;;;;;4.90;1.90;;;;;;;28.58;18.47;102014.53;5112993;28;20076;-60
2023/06/03 10:41:38;;;;;;;7.78;1.60;;;;;;;28.23;17.19;102014.28;5113294;28;20059;-61
2023/06/03 10:44:03;;;;;;;3.50;1.80;;;;;;;28.22;17.36;102020.63;5113011;28;20544;-61
2023/06/03 10:46:29;;;;;;;6.55;1.90;;;;;;;28.39;17.18;102011.75;5112973;28;20103;-62
2023/06/03 10:48:56;;;;;;;6.45;1.70;;;;;;;28.41;16.51;102020.75;5112996;28;20028;-61
2023/06/03 10:51:48;;;;;;;3.38;1.90;;;;;;;28.74;17.06;102018.31;5112849;28;20055;-61
2023/06/03 10:54:40;;;;;;;7.28;1.95;;;;;;;28.85;16.79;102021.38;5113053;28;20102;-61
2023/06/03 10:57:08;;;;;;;3.88;1.65;;;;;;;28.51;16.29;102013.91;5113198;28;20027;-61
2023/06/03 10:59:45;;;;;;;5.90;1.67;;;;;;;28.50;16.91;102022.16;5112964;28;20034;-61
2023/06/03 11:02:11;;;;;;;5.93;1.70;;;;;;;28.24;15.96;102017.88;5112584;28;20072;-61
2023/06/03 11:04:38;;;;;;;4.38;1.70;;;;;;;28.28;16.34;102008.63;5112791;28;20381;-61
2023/06/03 11:07:05;;;;;;;3.50;1.70;;;;;;;28.39;15.81;102011.75;5112212;28;20032;-62
2023/06/03 11:09:37;;;;;;;4.88;1.60;;;;;;;28.69;16.16;101999.50;5112663;28;20053;-61
2023/06/03 11:12:09;;;;;;;3.45;1.70;;;;;;;28.60;16.18;102004.44;5112792;28;20031;-61
2023/06/03 11:14:39;;;;;;;6.13;1.80;;;;;;;28.54;17.35;102005.63;5112833;28;20403;-61
2023/06/03 11:17:05;;;;;;;5.00;2.00;;;;;;;28.83;15.15;102014.28;5112752;28;20123;-61
2023/06/03 11:19:35;;;;;;;5.65;2.28;;;;;;;28.79;15.90;102010.81;5094625;28;20111;-61
2023/06/03 11:22:04;;;;;;;4.68;2.22;;;;;;;28.69;16.03;102010.38;5112702;28;20389;-62
2023/06/03 11:24:42;;;;;;;6.45;1.80;;;;;;;29.01;16.78;102007.97;5112579;28;20515;-62
2023/06/03 11:27:13;;;;;;;5.22;1.73;;;;;;;28.82;16.43;102018.84;5112766;28;20026;-61